sensor_id;sensor_type;location;lat;lon;timestamp;temperature;humidity
10589;DHT22;5342;55.676;13.346;2022-10-16T00:11:20;13.80;99.90
10589;DHT22;5342;55.676;13.346;2022-10-16T00:13:47;13.70;99.90
10589;DHT22;5342;55.676;13.346;2022-10-16T00:16:14;14.20;99.90
10589;DHT22;5342;55.676;13.346;2022-10-16T00:26:12;13.60;99.90
10589;DHT22;5342;55.676;13.346;2022-10-16T00:28:39;13.70;99.90
10589;DHT22;5342;55.676;13.346;2022-10-16T00:33:35;13.60;99.90
10589;DHT22;5342;55.676;13.346;2022-10-16T00:38:32;13.50;99.90
10589;DHT22;5342;55.676;13.346;2022-10-16T00:46:08;13.30;99.90
10589;DHT22;5342;55.676;13.346;2022-10-16T00:48:36;13.20;99.90
10589;DHT22;5342;55.676;13.346;2022-10-16T00:53:32;13.20;99.90
10589;DHT22;5342;55.676;13.346;2022-10-16T01:14:26;13.30;99.90
10589;DHT22;5342;55.676;13.346;2022-10-16T01:17:12;13.20;99.90
10589;DHT22;5342;55.676;13.346;2022-10-16T01:22:39;13.30;99.90
10589;DHT22;5342;55.676;13.346;2022-10-16T01:25:16;13.30;99.90
10589;DHT22;5342;55.676;13.346;2022-10-16T01:27:45;13.20;99.90
10589;DHT22;5342;55.676;13.346;2022-10-16T01:30:29;13.30;99.90
10589;DHT22;5342;55.676;13.346;2022-10-16T01:33:10;13.30;99.90
10589;DHT22;5342;55.676;13.346;2022-10-16T01:36:01;13.40;99.90
10589;DHT22;5342;55.676;13.346;2022-10-16T01:38:33;13.30;99.90
10589;DHT22;5342;55.676;13.346;2022-10-16T01:41:18;13.30;99.90
10589;DHT22;5342;55.676;13.346;2022-10-16T01:44:10;13.30;99.90
10589;DHT22;5342;55.676;13.346;2022-10-16T01:46:42;13.20;99.90
10589;DHT22;5342;55.676;13.346;2022-10-16T01:49:10;13.30;99.90
10589;DHT22;5342;55.676;13.346;2022-10-16T01:51:38;13.20;99.90
10589;DHT22;5342;55.676;13.346;2022-10-16T01:54:08;13.20;99.90
10589;DHT22;5342;55.676;13.346;2022-10-16T01:56:36;13.20;99.90
10589;DHT22;5342;55.676;13.346;2022-10-16T01:59:09;13.20;99.90
10589;DHT22;5342;55.676;13.346;2022-10-16T02:01:40;13.20;99.90
10589;DHT22;5342;55.676;13.346;2022-10-16T02:04:22;13.20;99.90
10589;DHT22;5342;55.676;13.346;2022-10-16T02:06:49;13.10;99.90
10589;DHT22;5342;55.676;13.346;2022-10-16T02:09:16;13.10;99.90
10589;DHT22;5342;55.676;13.346;2022-10-16T02:11:43;13.10;99.90
10589;DHT22;5342;55.676;13.346;2022-10-16T02:14:10;13.10;99.90
10589;DHT22;5342;55.676;13.346;2022-10-16T02:16:39;12.70;99.90
10589;DHT22;5342;55.676;13.346;2022-10-16T02:19:06;13.10;99.90
10589;DHT22;5342;55.676;13.346;2022-10-16T02:21:44;13.10;99.90
10589;DHT22;5342;55.676;13.346;2022-10-16T02:30:03;12.80;99.90
10589;DHT22;5342;55.676;13.346;2022-10-16T02:32:35;12.90;99.90
10589;DHT22;5342;55.676;13.346;2022-10-16T02:35:04;12.80;99.90
10589;DHT22;5342;55.676;13.346;2022-10-16T02:37:31;12.80;99.90
10589;DHT22;5342;55.676;13.346;2022-10-16T02:39:58;12.80;99.90
10589;DHT22;5342;55.676;13.346;2022-10-16T02:42:29;12.80;99.90
10589;DHT22;5342;55.676;13.346;2022-10-16T02:44:58;12.80;99.90
10589;DHT22;5342;55.676;13.346;2022-10-16T02:47:25;12.80;99.90
10589;DHT22;5342;55.676;13.346;2022-10-16T02:49:51;12.70;99.90
10589;DHT22;5342;55.676;13.346;2022-10-16T02:52:17;12.70;99.90
10589;DHT22;5342;55.676;13.346;2022-10-16T02:54:43;12.60;99.90
10589;DHT22;5342;55.676;13.346;2022-10-16T02:57:10;12.60;99.90
10589;DHT22;5342;55.676;13.346;2022-10-16T02:59:36;12.60;99.90
10589;DHT22;5342;55.676;13.346;2022-10-16T03:02:02;12.60;99.90
10589;DHT22;5342;55.676;13.346;2022-10-16T03:04:28;12.60;99.90
10589;DHT22;5342;55.676;13.346;2022-10-16T03:06:54;12.60;99.90
10589;DHT22;5342;55.676;13.346;2022-10-16T03:09:21;12.60;99.90
10589;DHT22;5342;55.676;13.346;2022-10-16T03:11:47;12.60;99.90
10589;DHT22;5342;55.676;13.346;2022-10-16T03:14:13;12.50;99.90
10589;DHT22;5342;55.676;13.346;2022-10-16T03:16:39;12.50;99.90
10589;DHT22;5342;55.676;13.346;2022-10-16T03:19:05;12.50;99.90
10589;DHT22;5342;55.676;13.346;2022-10-16T03:21:31;12.50;99.90
10589;DHT22;5342;55.676;13.346;2022-10-16T03:23:58;12.50;99.90
10589;DHT22;5342;55.676;13.346;2022-10-16T03:26:24;12.50;99.90
10589;DHT22;5342;55.676;13.346;2022-10-16T03:28:50;12.50;99.90
10589;DHT22;5342;55.676;13.346;2022-10-16T03:31:16;12.40;99.90
10589;DHT22;5342;55.676;13.346;2022-10-16T03:33:42;12.40;99.90
10589;DHT22;5342;55.676;13.346;2022-10-16T03:36:08;12.40;99.90
10589;DHT22;5342;55.676;13.346;2022-10-16T03:38:34;12.40;99.90
10589;DHT22;5342;55.676;13.346;2022-10-16T03:41:01;12.40;99.90
10589;DHT22;5342;55.676;13.346;2022-10-16T03:43:27;12.40;99.90
10589;DHT22;5342;55.676;13.346;2022-10-16T03:45:53;12.30;99.90
10589;DHT22;5342;55.676;13.346;2022-10-16T03:48:19;12.20;99.90
10589;DHT22;5342;55.676;13.346;2022-10-16T03:50:45;12.20;99.90
10589;DHT22;5342;55.676;13.346;2022-10-16T03:53:14;12.20;99.90
10589;DHT22;5342;55.676;13.346;2022-10-16T03:55:44;12.20;99.90
10589;DHT22;5342;55.676;13.346;2022-10-16T03:58:10;12.10;99.90
10589;DHT22;5342;55.676;13.346;2022-10-16T04:00:44;12.10;99.90
10589;DHT22;5342;55.676;13.346;2022-10-16T04:03:10;12.10;99.90
10589;DHT22;5342;55.676;13.346;2022-10-16T04:05:37;12.10;99.90
10589;DHT22;5342;55.676;13.346;2022-10-16T04:08:04;12.00;99.90
10589;DHT22;5342;55.676;13.346;2022-10-16T04:10:30;12.00;99.90
10589;DHT22;5342;55.676;13.346;2022-10-16T04:12:56;12.00;99.90
10589;DHT22;5342;55.676;13.346;2022-10-16T04:15:23;12.00;99.90
10589;DHT22;5342;55.676;13.346;2022-10-16T04:17:50;12.00;99.90
10589;DHT22;5342;55.676;13.346;2022-10-16T04:20:17;12.00;99.90
10589;DHT22;5342;55.676;13.346;2022-10-16T04:22:43;12.00;99.90
10589;DHT22;5342;55.676;13.346;2022-10-16T04:25:10;12.00;99.90
10589;DHT22;5342;55.676;13.346;2022-10-16T04:27:38;12.00;99.90
10589;DHT22;5342;55.676;13.346;2022-10-16T04:30:05;12.00;99.90
10589;DHT22;5342;55.676;13.346;2022-10-16T04:32:31;11.90;99.90
10589;DHT22;5342;55.676;13.346;2022-10-16T04:34:57;12.00;99.90
10589;DHT22;5342;55.676;13.346;2022-10-16T04:37:25;11.90;99.90
10589;DHT22;5342;55.676;13.346;2022-10-16T04:39:52;11.90;99.90
10589;DHT22;5342;55.676;13.346;2022-10-16T04:42:19;11.90;99.90
10589;DHT22;5342;55.676;13.346;2022-10-16T04:44:45;11.90;99.90
10589;DHT22;5342;55.676;13.346;2022-10-16T04:47:12;11.90;99.90
10589;DHT22;5342;55.676;13.346;2022-10-16T04:49:38;11.90;99.90
10589;DHT22;5342;55.676;13.346;2022-10-16T04:52:04;11.90;99.90
10589;DHT22;5342;55.676;13.346;2022-10-16T04:54:30;11.80;99.90
10589;DHT22;5342;55.676;13.346;2022-10-16T04:56:57;11.80;99.90
10589;DHT22;5342;55.676;13.346;2022-10-16T04:59:23;11.80;99.90
10589;DHT22;5342;55.676;13.346;2022-10-16T05:01:50;11.80;99.90
10589;DHT22;5342;55.676;13.346;2022-10-16T05:04:16;11.80;99.90
10589;DHT22;5342;55.676;13.346;2022-10-16T05:06:42;11.80;99.90
10589;DHT22;5342;55.676;13.346;2022-10-16T05:09:09;11.80;99.90
10589;DHT22;5342;55.676;13.346;2022-10-16T05:11:35;11.90;99.90
10589;DHT22;5342;55.676;13.346;2022-10-16T05:14:01;11.90;99.90
10589;DHT22;5342;55.676;13.346;2022-10-16T05:16:27;11.90;99.90
10589;DHT22;5342;55.676;13.346;2022-10-16T05:18:54;11.90;99.90
10589;DHT22;5342;55.676;13.346;2022-10-16T05:21:20;11.90;99.90
10589;DHT22;5342;55.676;13.346;2022-10-16T05:23:46;12.00;99.90
10589;DHT22;5342;55.676;13.346;2022-10-16T05:26:12;11.90;99.90
10589;DHT22;5342;55.676;13.346;2022-10-16T05:28:39;12.00;99.90
10589;DHT22;5342;55.676;13.346;2022-10-16T05:31:09;12.00;99.90
10589;DHT22;5342;55.676;13.346;2022-10-16T05:33:36;12.00;99.90
10589;DHT22;5342;55.676;13.346;2022-10-16T05:36:06;12.00;99.90
10589;DHT22;5342;55.676;13.346;2022-10-16T05:38:34;12.10;99.90
10589;DHT22;5342;55.676;13.346;2022-10-16T05:41:00;12.10;99.90
10589;DHT22;5342;55.676;13.346;2022-10-16T05:43:28;12.10;99.90
10589;DHT22;5342;55.676;13.346;2022-10-16T05:48:22;12.10;99.90
10589;DHT22;5342;55.676;13.346;2022-10-16T05:50:55;12.20;99.90
10589;DHT22;5342;55.676;13.346;2022-10-16T05:53:22;12.20;99.90
10589;DHT22;5342;55.676;13.346;2022-10-16T05:55:55;12.20;99.90
10589;DHT22;5342;55.676;13.346;2022-10-16T05:58:22;12.20;99.90
10589;DHT22;5342;55.676;13.346;2022-10-16T06:01:00;12.20;99.90
10589;DHT22;5342;55.676;13.346;2022-10-16T06:03:27;12.30;99.90
10589;DHT22;5342;55.676;13.346;2022-10-16T06:05:54;12.30;99.90
10589;DHT22;5342;55.676;13.346;2022-10-16T06:08:22;12.30;99.90
10589;DHT22;5342;55.676;13.346;2022-10-16T06:10:49;12.30;99.90
10589;DHT22;5342;55.676;13.346;2022-10-16T06:13:25;12.30;99.90
10589;DHT22;5342;55.676;13.346;2022-10-16T06:15:51;12.30;99.90
10589;DHT22;5342;55.676;13.346;2022-10-16T06:18:17;12.30;99.90
10589;DHT22;5342;55.676;13.346;2022-10-16T06:20:43;12.30;99.90
10589;DHT22;5342;55.676;13.346;2022-10-16T06:23:10;12.40;99.90
10589;DHT22;5342;55.676;13.346;2022-10-16T06:25:36;12.40;99.90
10589;DHT22;5342;55.676;13.346;2022-10-16T06:28:02;12.40;99.90
10589;DHT22;5342;55.676;13.346;2022-10-16T06:30:28;12.40;99.90
10589;DHT22;5342;55.676;13.346;2022-10-16T06:32:54;12.40;99.90
10589;DHT22;5342;55.676;13.346;2022-10-16T06:35:20;12.40;99.90
10589;DHT22;5342;55.676;13.346;2022-10-16T06:37:46;12.50;99.90
10589;DHT22;5342;55.676;13.346;2022-10-16T06:40:12;12.40;99.90
10589;DHT22;5342;55.676;13.346;2022-10-16T06:42:41;12.50;99.90
10589;DHT22;5342;55.676;13.346;2022-10-16T06:45:08;12.50;99.90
10589;DHT22;5342;55.676;13.346;2022-10-16T06:47:34;12.50;99.90
10589;DHT22;5342;55.676;13.346;2022-10-16T06:50:00;12.50;99.90
10589;DHT22;5342;55.676;13.346;2022-10-16T06:52:28;12.50;99.90
10589;DHT22;5342;55.676;13.346;2022-10-16T06:54:54;12.50;99.90
10589;DHT22;5342;55.676;13.346;2022-10-16T06:57:20;12.60;99.90
10589;DHT22;5342;55.676;13.346;2022-10-16T06:59:46;12.60;99.90
10589;DHT22;5342;55.676;13.346;2022-10-16T07:02:12;12.60;99.90
10589;DHT22;5342;55.676;13.346;2022-10-16T07:04:38;12.60;99.90
10589;DHT22;5342;55.676;13.346;2022-10-16T07:07:04;12.60;99.90
10589;DHT22;5342;55.676;13.346;2022-10-16T07:09:31;12.60;99.90
10589;DHT22;5342;55.676;13.346;2022-10-16T07:11:57;12.60;99.90
10589;DHT22;5342;55.676;13.346;2022-10-16T07:14:23;12.60;99.90
10589;DHT22;5342;55.676;13.346;2022-10-16T07:16:49;12.60;99.90
10589;DHT22;5342;55.676;13.346;2022-10-16T07:19:16;12.70;99.90
10589;DHT22;5342;55.676;13.346;2022-10-16T07:21:43;12.70;99.90
10589;DHT22;5342;55.676;13.346;2022-10-16T07:24:15;12.70;99.90
10589;DHT22;5342;55.676;13.346;2022-10-16T07:26:43;12.80;99.90
10589;DHT22;5342;55.676;13.346;2022-10-16T07:29:15;12.80;99.90
10589;DHT22;5342;55.676;13.346;2022-10-16T07:31:42;12.80;99.90
10589;DHT22;5342;55.676;13.346;2022-10-16T07:34:09;12.80;99.90
10589;DHT22;5342;55.676;13.346;2022-10-16T07:36:35;12.80;99.90
10589;DHT22;5342;55.676;13.346;2022-10-16T07:39:01;12.90;99.90
10589;DHT22;5342;55.676;13.346;2022-10-16T07:41:28;12.90;99.90
10589;DHT22;5342;55.676;13.346;2022-10-16T07:43:54;13.00;99.90
10589;DHT22;5342;55.676;13.346;2022-10-16T07:46:22;13.00;99.90
10589;DHT22;5342;55.676;13.346;2022-10-16T07:48:49;13.10;99.90
10589;DHT22;5342;55.676;13.346;2022-10-16T07:51:17;13.10;99.90
10589;DHT22;5342;55.676;13.346;2022-10-16T07:53:43;13.20;99.90
10589;DHT22;5342;55.676;13.346;2022-10-16T07:56:10;13.20;99.90
10589;DHT22;5342;55.676;13.346;2022-10-16T07:58:37;13.20;99.90
10589;DHT22;5342;55.676;13.346;2022-10-16T08:01:08;13.30;99.90
10589;DHT22;5342;55.676;13.346;2022-10-16T08:03:35;13.30;99.90
10589;DHT22;5342;55.676;13.346;2022-10-16T08:06:02;13.30;99.90
10589;DHT22;5342;55.676;13.346;2022-10-16T08:08:29;13.40;99.90
10589;DHT22;5342;55.676;13.346;2022-10-16T08:10:55;13.40;99.90
10589;DHT22;5342;55.676;13.346;2022-10-16T08:13:22;13.50;99.90
10589;DHT22;5342;55.676;13.346;2022-10-16T08:15:48;13.50;99.90
10589;DHT22;5342;55.676;13.346;2022-10-16T08:18:15;13.50;99.90
10589;DHT22;5342;55.676;13.346;2022-10-16T08:20:43;13.60;99.90
10589;DHT22;5342;55.676;13.346;2022-10-16T08:23:11;13.60;99.90
10589;DHT22;5342;55.676;13.346;2022-10-16T08:25:38;13.70;99.90
10589;DHT22;5342;55.676;13.346;2022-10-16T08:28:05;13.80;99.90
10589;DHT22;5342;55.676;13.346;2022-10-16T08:30:32;13.80;99.90
10589;DHT22;5342;55.676;13.346;2022-10-16T08:32:58;13.90;99.90
10589;DHT22;5342;55.676;13.346;2022-10-16T08:35:24;13.80;99.90
10589;DHT22;5342;55.676;13.346;2022-10-16T08:37:50;13.80;99.90
10589;DHT22;5342;55.676;13.346;2022-10-16T08:40:20;13.80;99.90
10589;DHT22;5342;55.676;13.346;2022-10-16T08:43:05;13.90;99.90
10589;DHT22;5342;55.676;13.346;2022-10-16T08:51:07;14.00;99.90
10589;DHT22;5342;55.676;13.346;2022-10-16T08:53:56;14.10;99.90
10589;DHT22;5342;55.676;13.346;2022-10-16T08:56:25;14.10;99.90
10589;DHT22;5342;55.676;13.346;2022-10-16T08:58:52;14.00;99.90
10589;DHT22;5342;55.676;13.346;2022-10-16T09:01:20;14.10;99.90
10589;DHT22;5342;55.676;13.346;2022-10-16T09:09:09;14.20;99.90
10589;DHT22;5342;55.676;13.346;2022-10-16T09:14:48;14.30;99.90
10589;DHT22;5342;55.676;13.346;2022-10-16T09:22:40;14.50;99.90
10589;DHT22;5342;55.676;13.346;2022-10-16T09:25:15;14.60;99.90
10589;DHT22;5342;55.676;13.346;2022-10-16T09:27:45;14.80;99.90
10589;DHT22;5342;55.676;13.346;2022-10-16T09:30:20;14.70;99.90
10589;DHT22;5342;55.676;13.346;2022-10-16T09:32:52;14.70;99.90
10589;DHT22;5342;55.676;13.346;2022-10-16T09:35:40;14.80;99.90
10589;DHT22;5342;55.676;13.346;2022-10-16T09:38:08;15.00;99.90
10589;DHT22;5342;55.676;13.346;2022-10-16T09:40:36;15.10;99.90
10589;DHT22;5342;55.676;13.346;2022-10-16T09:43:46;15.10;99.90
10589;DHT22;5342;55.676;13.346;2022-10-16T09:48:52;15.10;99.90
10589;DHT22;5342;55.676;13.346;2022-10-16T09:51:29;15.00;99.90
10589;DHT22;5342;55.676;13.346;2022-10-16T09:54:00;15.10;99.90
10589;DHT22;5342;55.676;13.346;2022-10-16T09:56:29;15.10;99.90
10589;DHT22;5342;55.676;13.346;2022-10-16T09:58:58;15.10;99.90
10589;DHT22;5342;55.676;13.346;2022-10-16T10:01:30;15.00;99.90
10589;DHT22;5342;55.676;13.346;2022-10-16T10:03:57;15.00;99.90
10589;DHT22;5342;55.676;13.346;2022-10-16T10:06:31;15.10;99.90
10589;DHT22;5342;55.676;13.346;2022-10-16T10:44:51;16.00;99.90
10589;DHT22;5342;55.676;13.346;2022-10-16T10:50:18;15.90;99.90
10589;DHT22;5342;55.676;13.346;2022-10-16T10:53:09;15.90;99.90
10589;DHT22;5342;55.676;13.346;2022-10-16T10:55:40;15.90;99.90
10589;DHT22;5342;55.676;13.346;2022-10-16T11:11:34;15.90;99.90
10589;DHT22;5342;55.676;13.346;2022-10-16T11:14:34;16.10;99.90
10589;DHT22;5342;55.676;13.346;2022-10-16T11:17:22;15.90;99.90
10589;DHT22;5342;55.676;13.346;2022-10-16T11:22:38;16.10;99.90
10589;DHT22;5342;55.676;13.346;2022-10-16T11:25:32;16.10;99.90
10589;DHT22;5342;55.676;13.346;2022-10-16T11:28:03;16.10;99.90
10589;DHT22;5342;55.676;13.346;2022-10-16T11:30:44;16.00;99.90
10589;DHT22;5342;55.676;13.346;2022-10-16T11:33:20;16.00;99.90
10589;DHT22;5342;55.676;13.346;2022-10-16T11:36:14;15.80;99.90
10589;DHT22;5342;55.676;13.346;2022-10-16T11:41:47;16.10;99.90
10589;DHT22;5342;55.676;13.346;2022-10-16T11:49:48;16.30;99.90
10589;DHT22;5342;55.676;13.346;2022-10-16T11:52:25;16.10;99.90
10589;DHT22;5342;55.676;13.346;2022-10-16T11:55:02;16.10;99.90
10589;DHT22;5342;55.676;13.346;2022-10-16T11:57:33;16.40;99.90
10589;DHT22;5342;55.676;13.346;2022-10-16T12:00:27;16.30;99.90
10589;DHT22;5342;55.676;13.346;2022-10-16T12:08:36;16.40;99.90
10589;DHT22;5342;55.676;13.346;2022-10-16T12:16:55;16.00;99.90
10589;DHT22;5342;55.676;13.346;2022-10-16T12:19:23;16.20;99.90
10589;DHT22;5342;55.676;13.346;2022-10-16T12:21:51;16.30;99.90
10589;DHT22;5342;55.676;13.346;2022-10-16T12:24:38;16.40;99.90
10589;DHT22;5342;55.676;13.346;2022-10-16T12:27:26;16.50;99.90
10589;DHT22;5342;55.676;13.346;2022-10-16T12:30:04;16.10;99.90
10589;DHT22;5342;55.676;13.346;2022-10-16T12:32:34;16.00;99.90
10589;DHT22;5342;55.676;13.346;2022-10-16T12:35:02;16.10;99.90
10589;DHT22;5342;55.676;13.346;2022-10-16T12:37:35;16.10;99.90
10589;DHT22;5342;55.676;13.346;2022-10-16T12:40:27;16.30;99.90
10589;DHT22;5342;55.676;13.346;2022-10-16T12:42:53;16.50;99.90
10589;DHT22;5342;55.676;13.346;2022-10-16T12:45:32;16.60;99.90
10589;DHT22;5342;55.676;13.346;2022-10-16T12:48:01;16.20;99.90
10589;DHT22;5342;55.676;13.346;2022-10-16T12:50:35;16.30;99.90
10589;DHT22;5342;55.676;13.346;2022-10-16T12:53:03;16.20;99.90
10589;DHT22;5342;55.676;13.346;2022-10-16T12:55:39;16.30;99.90
10589;DHT22;5342;55.676;13.346;2022-10-16T13:06:59;17.70;99.90
10589;DHT22;5342;55.676;13.346;2022-10-16T13:12:41;16.60;99.90
10589;DHT22;5342;55.676;13.346;2022-10-16T13:26:17;16.30;99.90
10589;DHT22;5342;55.676;13.346;2022-10-16T13:28:46;16.40;99.90
10589;DHT22;5342;55.676;13.346;2022-10-16T13:31:17;15.90;99.90
10589;DHT22;5342;55.676;13.346;2022-10-16T13:33:48;15.90;99.90
10589;DHT22;5342;55.676;13.346;2022-10-16T13:36:25;15.90;99.90
10589;DHT22;5342;55.676;13.346;2022-10-16T13:39:14;15.80;99.90
10589;DHT22;5342;55.676;13.346;2022-10-16T13:41:41;15.90;99.90
10589;DHT22;5342;55.676;13.346;2022-10-16T13:44:18;16.00;99.90
10589;DHT22;5342;55.676;13.346;2022-10-16T13:46:57;16.20;99.90
10589;DHT22;5342;55.676;13.346;2022-10-16T13:49:24;16.10;99.90
10589;DHT22;5342;55.676;13.346;2022-10-16T13:51:59;16.00;99.90
10589;DHT22;5342;55.676;13.346;2022-10-16T13:54:27;16.00;99.90
10589;DHT22;5342;55.676;13.346;2022-10-16T13:56:55;16.00;99.90
10589;DHT22;5342;55.676;13.346;2022-10-16T13:59:32;16.00;99.90
10589;DHT22;5342;55.676;13.346;2022-10-16T14:01:59;15.90;99.90
10589;DHT22;5342;55.676;13.346;2022-10-16T14:04:31;15.90;99.90
10589;DHT22;5342;55.676;13.346;2022-10-16T14:06:58;16.00;99.90
10589;DHT22;5342;55.676;13.346;2022-10-16T14:09:29;16.10;99.90
10589;DHT22;5342;55.676;13.346;2022-10-16T14:12:03;15.90;99.90
10589;DHT22;5342;55.676;13.346;2022-10-16T14:14:41;16.00;99.90
10589;DHT22;5342;55.676;13.346;2022-10-16T14:17:15;15.90;99.90
10589;DHT22;5342;55.676;13.346;2022-10-16T14:19:49;15.50;99.90
10589;DHT22;5342;55.676;13.346;2022-10-16T14:24:56;15.30;99.90
10589;DHT22;5342;55.676;13.346;2022-10-16T14:30:24;16.00;99.90
10589;DHT22;5342;55.676;13.346;2022-10-16T14:33:21;16.10;99.90
10589;DHT22;5342;55.676;13.346;2022-10-16T14:38:25;15.50;99.90
10589;DHT22;5342;55.676;13.346;2022-10-16T14:40:52;15.40;99.90
10589;DHT22;5342;55.676;13.346;2022-10-16T14:43:26;15.40;99.90
10589;DHT22;5342;55.676;13.346;2022-10-16T14:45:56;15.10;99.90
10589;DHT22;5342;55.676;13.346;2022-10-16T14:48:23;15.20;99.90
10589;DHT22;5342;55.676;13.346;2022-10-16T14:50:50;15.10;99.90
10589;DHT22;5342;55.676;13.346;2022-10-16T14:53:16;15.10;99.90
10589;DHT22;5342;55.676;13.346;2022-10-16T14:55:43;15.20;99.90
10589;DHT22;5342;55.676;13.346;2022-10-16T14:58:18;15.00;99.90
10589;DHT22;5342;55.676;13.346;2022-10-16T15:00:45;14.90;99.90
10589;DHT22;5342;55.676;13.346;2022-10-16T15:03:11;15.00;99.90
10589;DHT22;5342;55.676;13.346;2022-10-16T15:05:38;15.00;99.90
10589;DHT22;5342;55.676;13.346;2022-10-16T15:08:04;15.60;99.90
10589;DHT22;5342;55.676;13.346;2022-10-16T15:10:31;15.20;99.90
10589;DHT22;5342;55.676;13.346;2022-10-16T15:12:58;15.20;99.90
10589;DHT22;5342;55.676;13.346;2022-10-16T15:18:08;14.90;99.90
10589;DHT22;5342;55.676;13.346;2022-10-16T15:20:36;15.00;99.90
10589;DHT22;5342;55.676;13.346;2022-10-16T15:23:10;14.90;99.90
10589;DHT22;5342;55.676;13.346;2022-10-16T15:25:50;14.90;99.90
10589;DHT22;5342;55.676;13.346;2022-10-16T15:28:18;15.10;99.90
10589;DHT22;5342;55.676;13.346;2022-10-16T15:30:44;15.00;99.90
10589;DHT22;5342;55.676;13.346;2022-10-16T15:33:17;14.90;99.90
10589;DHT22;5342;55.676;13.346;2022-10-16T15:35:47;14.40;99.90
10589;DHT22;5342;55.676;13.346;2022-10-16T15:38:14;15.00;99.90
10589;DHT22;5342;55.676;13.346;2022-10-16T15:40:41;14.70;99.90
10589;DHT22;5342;55.676;13.346;2022-10-16T15:43:07;14.60;99.90
10589;DHT22;5342;55.676;13.346;2022-10-16T15:45:34;14.60;99.90
10589;DHT22;5342;55.676;13.346;2022-10-16T15:48:00;14.50;99.90
10589;DHT22;5342;55.676;13.346;2022-10-16T15:50:27;14.50;99.90
10589;DHT22;5342;55.676;13.346;2022-10-16T15:52:53;14.40;99.90
10589;DHT22;5342;55.676;13.346;2022-10-16T15:55:19;14.40;99.90
10589;DHT22;5342;55.676;13.346;2022-10-16T15:57:45;14.40;99.90
10589;DHT22;5342;55.676;13.346;2022-10-16T16:00:16;14.30;99.90
10589;DHT22;5342;55.676;13.346;2022-10-16T16:02:44;14.20;99.90
10589;DHT22;5342;55.676;13.346;2022-10-16T16:05:15;14.20;99.90
10589;DHT22;5342;55.676;13.346;2022-10-16T16:07:41;14.10;99.90
10589;DHT22;5342;55.676;13.346;2022-10-16T16:10:09;14.20;99.90
10589;DHT22;5342;55.676;13.346;2022-10-16T16:12:36;14.40;99.90
10589;DHT22;5342;55.676;13.346;2022-10-16T16:15:07;14.10;99.90
10589;DHT22;5342;55.676;13.346;2022-10-16T16:17:35;14.00;99.90
10589;DHT22;5342;55.676;13.346;2022-10-16T16:20:03;13.90;99.90
10589;DHT22;5342;55.676;13.346;2022-10-16T16:22:30;13.90;99.90
10589;DHT22;5342;55.676;13.346;2022-10-16T16:24:57;13.80;99.90
10589;DHT22;5342;55.676;13.346;2022-10-16T16:27:23;13.70;99.90
10589;DHT22;5342;55.676;13.346;2022-10-16T16:29:50;13.70;99.90
10589;DHT22;5342;55.676;13.346;2022-10-16T16:32:16;13.80;99.90
10589;DHT22;5342;55.676;13.346;2022-10-16T16:34:43;13.60;99.90
10589;DHT22;5342;55.676;13.346;2022-10-16T16:37:09;13.60;99.90
10589;DHT22;5342;55.676;13.346;2022-10-16T16:39:35;13.70;99.90
10589;DHT22;5342;55.676;13.346;2022-10-16T16:42:01;13.50;99.90
10589;DHT22;5342;55.676;13.346;2022-10-16T16:44:28;13.50;99.90
10589;DHT22;5342;55.676;13.346;2022-10-16T16:46:55;13.40;99.90
10589;DHT22;5342;55.676;13.346;2022-10-16T16:49:21;13.40;99.90
10589;DHT22;5342;55.676;13.346;2022-10-16T16:51:47;13.40;99.90
10589;DHT22;5342;55.676;13.346;2022-10-16T16:54:13;13.00;99.90
10589;DHT22;5342;55.676;13.346;2022-10-16T16:56:40;13.50;99.90
10589;DHT22;5342;55.676;13.346;2022-10-16T16:59:14;13.20;99.90
10589;DHT22;5342;55.676;13.346;2022-10-16T17:01:41;13.50;99.90
10589;DHT22;5342;55.676;13.346;2022-10-16T17:04:08;13.30;99.90
10589;DHT22;5342;55.676;13.346;2022-10-16T17:06:34;13.20;99.90
10589;DHT22;5342;55.676;13.346;2022-10-16T17:09:02;13.30;99.90
10589;DHT22;5342;55.676;13.346;2022-10-16T17:11:28;13.10;99.90
10589;DHT22;5342;55.676;13.346;2022-10-16T17:13:57;13.20;99.90
10589;DHT22;5342;55.676;13.346;2022-10-16T17:16:26;13.10;99.90
10589;DHT22;5342;55.676;13.346;2022-10-16T17:18:53;13.00;99.90
10589;DHT22;5342;55.676;13.346;2022-10-16T17:21:19;13.10;99.90
10589;DHT22;5342;55.676;13.346;2022-10-16T17:23:45;13.00;99.90
10589;DHT22;5342;55.676;13.346;2022-10-16T17:26:14;13.00;99.90
10589;DHT22;5342;55.676;13.346;2022-10-16T17:28:40;12.90;99.90
10589;DHT22;5342;55.676;13.346;2022-10-16T17:31:12;13.00;99.90
10589;DHT22;5342;55.676;13.346;2022-10-16T17:33:39;12.90;99.90
10589;DHT22;5342;55.676;13.346;2022-10-16T17:36:07;12.90;99.90
10589;DHT22;5342;55.676;13.346;2022-10-16T17:38:33;12.90;99.90
10589;DHT22;5342;55.676;13.346;2022-10-16T17:43:40;12.70;99.90
10589;DHT22;5342;55.676;13.346;2022-10-16T17:46:07;12.80;99.90
10589;DHT22;5342;55.676;13.346;2022-10-16T17:48:45;12.80;99.90
10589;DHT22;5342;55.676;13.346;2022-10-16T17:51:14;12.70;99.90
10589;DHT22;5342;55.676;13.346;2022-10-16T17:53:40;12.90;99.90
10589;DHT22;5342;55.676;13.346;2022-10-16T17:56:11;12.60;99.90
10589;DHT22;5342;55.676;13.346;2022-10-16T17:58:38;12.50;99.90
10589;DHT22;5342;55.676;13.346;2022-10-16T18:01:15;12.20;99.90
10589;DHT22;5342;55.676;13.346;2022-10-16T18:03:42;12.50;99.90
10589;DHT22;5342;55.676;13.346;2022-10-16T18:06:08;12.40;99.90
10589;DHT22;5342;55.676;13.346;2022-10-16T18:08:35;12.40;99.90
10589;DHT22;5342;55.676;13.346;2022-10-16T18:11:04;12.40;99.90
10589;DHT22;5342;55.676;13.346;2022-10-16T18:13:30;12.50;99.90
10589;DHT22;5342;55.676;13.346;2022-10-16T18:16:09;12.40;99.90
10589;DHT22;5342;55.676;13.346;2022-10-16T18:18:36;12.50;99.90
10589;DHT22;5342;55.676;13.346;2022-10-16T18:21:05;12.50;99.90
10589;DHT22;5342;55.676;13.346;2022-10-16T18:23:35;12.40;99.90
10589;DHT22;5342;55.676;13.346;2022-10-16T18:26:03;12.40;99.90
10589;DHT22;5342;55.676;13.346;2022-10-16T18:28:29;12.40;99.90
10589;DHT22;5342;55.676;13.346;2022-10-16T18:31:03;12.30;99.90
10589;DHT22;5342;55.676;13.346;2022-10-16T18:33:30;12.80;99.90
10589;DHT22;5342;55.676;13.346;2022-10-16T18:36:00;12.20;99.90
10589;DHT22;5342;55.676;13.346;2022-10-16T18:38:27;12.20;99.90
10589;DHT22;5342;55.676;13.346;2022-10-16T18:40:54;12.40;99.90
10589;DHT22;5342;55.676;13.346;2022-10-16T18:43:20;12.20;99.90
10589;DHT22;5342;55.676;13.346;2022-10-16T18:46:00;12.30;99.90
10589;DHT22;5342;55.676;13.346;2022-10-16T18:48:27;12.20;99.90
10589;DHT22;5342;55.676;13.346;2022-10-16T18:51:20;12.20;99.90
10589;DHT22;5342;55.676;13.346;2022-10-16T18:53:49;12.10;99.90
10589;DHT22;5342;55.676;13.346;2022-10-16T18:56:16;12.20;99.90
10589;DHT22;5342;55.676;13.346;2022-10-16T18:58:44;11.90;99.90